< < Back
Terminal Aerodrome Forecast


Current Version              Previous Versions:   1  2  3  4  5  6  7  8  9  

Terminal Aerodrome Forecast

615
FTUS44 KBMX 251140
TAFMGM
TAF
KMGM 251140Z 2512/2612 18012KT P6SM OVC015
      TEMPO 2512/2514 5SM RA OVC009
     FM251800 23015KT P6SM VCTS OVC035CB
     FM252300 25014KT P6SM SCT150
     FM260900 23008KT P6SM BKN025=

Latest METAR

318
SAUS80 KWBC 260100 RRB
MTRMGM
METAR KMGM 260053Z 23004KT 10SM CLR 22/17 A2968 RMK AO2 SLP047
T02220172


USA.gov is the U.S. government's official web portal to all federal, state and local government web resources and services.